Time;durP1;ratioP1;P1;durP2;ratioP2;P2;SDS_P1;SDS_P2;PMS_P1;PMS_P2;Temp;Humidity;BMP_temperature;BMP_pressure;BME280_temperature;BME280_humidity;BME280_pressure;Samples;Min_cycle;Max_cycle;Signal;HPM_P1;HPM_P2
2022/10/10 00:02:03;;;;;;;;;;;10.20;90.70;;;;;;5085167;28;19923;-68
2022/10/10 00:04:29;;;;;;;;;;;10.20;90.70;;;;;;5065644;28;19916;-68
2022/10/10 00:06:54;;;;;;;;;;;10.20;90.70;;;;;;5083185;28;19920;-68
2022/10/10 00:09:20;;;;;;;;;;;10.20;90.70;;;;;;5084482;28;19916;-68
2022/10/10 00:11:45;;;;;;;;;;;10.20;90.70;;;;;;5085123;28;20425;-68
2022/10/10 00:14:11;;;;;;;;;;;10.20;90.70;;;;;;5082380;28;20575;-68
2022/10/10 00:16:36;;;;;;;;;;;10.20;90.70;;;;;;5083245;28;19959;-68
2022/10/10 00:19:02;;;;;;;;;;;10.20;90.70;;;;;;5082581;28;19916;-68
2022/10/10 00:21:27;;;;;;;;;;;10.20;90.70;;;;;;5079170;28;19916;-68
2022/10/10 00:23:53;;;;;;;;;;;10.20;90.70;;;;;;5085592;28;19919;-68
2022/10/10 00:26:18;;;;;;;;;;;10.20;90.70;;;;;;5081938;28;19916;-68
2022/10/10 00:28:44;;;;;;;;;;;10.20;90.70;;;;;;5079501;28;19912;-68
2022/10/10 00:31:09;;;;;;;;;;;10.20;90.70;;;;;;5079050;28;20326;-68
2022/10/10 00:33:35;;;;;;;;;;;10.20;90.70;;;;;;5065859;28;19909;-68
2022/10/10 00:36:01;;;;;;;;;;;10.20;90.70;;;;;;5078803;28;19924;-68
2022/10/10 00:38:26;;;;;;;;;;;10.10;90.70;;;;;;5082753;28;19916;-68
2022/10/10 00:40:53;;;;;;;;;;;10.20;90.70;;;;;;5079037;28;19916;-68
2022/10/10 00:43:18;;;;;;;;;;;10.20;90.70;;;;;;5085127;28;19916;-68
2022/10/10 00:45:45;;;;;;;;;;;10.20;90.70;;;;;;5082795;28;19923;-68
2022/10/10 00:48:18;;;;;;;;;;;10.20;90.70;;;;;;5085691;28;19912;-68
2022/10/10 00:50:47;;;;;;;;;;;10.20;90.70;;;;;;5079012;28;19916;-68
2022/10/10 00:53:14;;;;;;;;;;;10.20;90.70;;;;;;5081682;28;19958;-68
2022/10/10 00:55:40;;;;;;;;;;;10.20;90.70;;;;;;5080565;28;19919;-68
2022/10/10 00:58:07;;;;;;;;;;;10.10;90.70;;;;;;5080709;28;19912;-68
2022/10/10 01:00:32;;;;;;;;;;;10.20;90.70;;;;;;5062148;28;20038;-68
2022/10/10 01:02:58;;;;;;;;;;;10.20;90.70;;;;;;5083992;28;20703;-68
2022/10/10 01:05:23;;;;;;;;;;;10.10;90.70;;;;;;5079049;28;20014;-68
2022/10/10 01:07:49;;;;;;;;;;;10.10;90.70;;;;;;5079099;28;20483;-68
2022/10/10 01:10:16;;;;;;;;;;;10.20;90.70;;;;;;5082109;28;20529;-68
2022/10/10 01:13:00;;;;;;;;;;;10.10;90.70;;;;;;5081403;28;19956;-68
2022/10/10 01:15:38;;;;;;;;;;;10.20;90.70;;;;;;5081734;28;20329;-68
2022/10/10 01:18:29;;;;;;;;;;;10.20;90.70;;;;;;5079877;28;20438;-68
2022/10/10 01:21:13;;;;;;;;;;;10.10;90.70;;;;;;5052564;28;19912;-68
2022/10/10 01:23:39;;;;;;;;;;;10.20;90.70;;;;;;5082700;28;20380;-68
2022/10/10 01:26:07;;;;;;;;;;;10.10;90.60;;;;;;5083125;28;20006;-68
2022/10/10 01:28:54;;;;;;;;;;;10.10;90.60;;;;;;5082816;28;19998;-68
2022/10/10 01:31:22;;;;;;;;;;;10.20;90.70;;;;;;5080960;28;19995;-68
2022/10/10 01:34:00;;;;;;;;;;;10.10;90.70;;;;;;5080502;28;20497;-68
2022/10/10 01:36:36;;;;;;;;;;;10.10;90.70;;;;;;5084348;28;20510;-68
2022/10/10 01:39:34;;;;;;;;;;;10.10;90.60;;;;;;5080655;28;20387;-68
2022/10/10 01:42:06;;;;;;;;;;;10.10;90.60;;;;;;5033105;28;19939;-68
2022/10/10 01:44:32;;;;;;;;;;;10.10;90.60;;;;;;5084713;28;19916;-68
2022/10/10 01:46:58;;;;;;;;;;;10.10;90.70;;;;;;5082634;28;19969;-68
2022/10/10 01:49:27;;;;;;;;;;;10.10;90.60;;;;;;5082496;28;19912;-68
2022/10/10 01:52:13;;;;;;;;;;;10.10;90.70;;;;;;5083104;28;19965;-69
2022/10/10 01:54:42;;;;;;;;;;;10.10;90.60;;;;;;5080596;28;19916;-69
2022/10/10 01:57:25;;;;;;;;;;;10.10;90.60;;;;;;5081676;28;20074;-69
2022/10/10 01:59:57;;;;;;;;;;;10.10;90.70;;;;;;5080249;28;19994;-69
2022/10/10 02:02:35;;;;;;;;;;;10.10;90.60;;;;;;5082764;28;19948;-69
2022/10/10 02:05:16;;;;;;;;;;;10.10;90.70;;;;;;5081684;28;19912;-69
2022/10/10 02:08:01;;;;;;;;;;;10.10;90.60;;;;;;5083341;28;19962;-69
2022/10/10 02:10:29;;;;;;;;;;;10.10;90.60;;;;;;5080180;28;20010;-69
2022/10/10 02:12:56;;;;;;;;;;;10.10;90.60;;;;;;5084186;28;19961;-69
2022/10/10 02:15:23;;;;;;;;;;;10.10;90.70;;;;;;5083777;28;19916;-69
2022/10/10 02:17:50;;;;;;;;;;;10.10;90.70;;;;;;5083051;28;20034;-69
2022/10/10 02:20:16;;;;;;;;;;;10.10;90.70;;;;;;5086760;28;20590;-69
2022/10/10 02:22:43;;;;;;;;;;;10.10;90.60;;;;;;5087953;28;19940;-69
2022/10/10 02:25:08;;;;;;;;;;;10.10;90.60;;;;;;5085671;28;19922;-69
2022/10/10 02:27:40;;;;;;;;;;;10.10;90.70;;;;;;5088130;28;20537;-69
2022/10/10 02:30:06;;;;;;;;;;;10.10;90.60;;;;;;5084250;28;19938;-69
2022/10/10 02:32:37;;;;;;;;;;;10.10;90.60;;;;;;5085991;28;20689;-69
2022/10/10 02:35:06;;;;;;;;;;;10.10;90.70;;;;;;5067233;28;19924;-68
2022/10/10 02:37:31;;;;;;;;;;;10.10;90.70;;;;;;5085576;28;19977;-69
2022/10/10 02:39:59;;;;;;;;;;;10.10;90.70;;;;;;5086149;28;19997;-69
2022/10/10 02:42:26;;;;;;;;;;;10.10;90.70;;;;;;5087093;28;19920;-69
2022/10/10 02:44:51;;;;;;;;;;;10.10;90.70;;;;;;5085591;28;19916;-69
2022/10/10 02:47:17;;;;;;;;;;;10.10;90.70;;;;;;5088245;28;19912;-68
2022/10/10 02:49:42;;;;;;;;;;;10.10;90.60;;;;;;5085677;28;19919;-68
2022/10/10 02:52:08;;;;;;;;;;;10.10;90.70;;;;;;5087975;28;20610;-68
2022/10/10 02:54:33;;;;;;;;;;;10.10;90.70;;;;;;5088454;28;19988;-69
2022/10/10 02:56:59;;;;;;;;;;;10.10;90.70;;;;;;5082427;28;20003;-69
2022/10/10 02:59:24;;;;;;;;;;;10.00;90.60;;;;;;5086387;28;19920;-69
2022/10/10 03:01:50;;;;;;;;;;;10.00;90.70;;;;;;5083345;28;19916;-69
2022/10/10 03:04:16;;;;;;;;;;;10.00;90.70;;;;;;5086946;28;19940;-69
2022/10/10 03:06:41;;;;;;;;;;;10.10;90.70;;;;;;5084867;28;20048;-69
2022/10/10 03:09:06;;;;;;;;;;;10.00;90.70;;;;;;5069985;28;19919;-69
2022/10/10 03:11:32;;;;;;;;;;;10.00;90.70;;;;;;5085164;28;20430;-69
2022/10/10 03:13:57;;;;;;;;;;;10.00;90.70;;;;;;5087797;28;19965;-69
2022/10/10 03:16:23;;;;;;;;;;;10.00;90.70;;;;;;5082319;28;19923;-69
2022/10/10 03:18:48;;;;;;;;;;;10.00;90.70;;;;;;5085839;28;19916;-69
2022/10/10 03:21:14;;;;;;;;;;;10.00;90.70;;;;;;5083982;28;19922;-68
2022/10/10 03:23:40;;;;;;;;;;;10.00;90.70;;;;;;5087840;28;20578;-69
2022/10/10 03:26:05;;;;;;;;;;;10.00;90.70;;;;;;5084824;28;19912;-69
2022/10/10 03:28:31;;;;;;;;;;;10.00;90.60;;;;;;5087472;28;19912;-69
2022/10/10 03:30:57;;;;;;;;;;;10.00;90.70;;;;;;5087012;28;20014;-68
2022/10/10 03:33:22;;;;;;;;;;;10.00;90.70;;;;;;5083059;28;19977;-69
2022/10/10 03:35:48;;;;;;;;;;;10.00;90.70;;;;;;5085098;28;19916;-69
2022/10/10 03:38:13;;;;;;;;;;;10.00;90.70;;;;;;5081397;28;19916;-69
2022/10/10 03:40:39;;;;;;;;;;;10.00;90.70;;;;;;5086519;28;19923;-69
2022/10/10 03:43:05;;;;;;;;;;;10.00;90.70;;;;;;5079696;28;19950;-69
2022/10/10 03:45:31;;;;;;;;;;;10.00;90.70;;;;;;5086797;28;19924;-69
2022/10/10 03:47:56;;;;;;;;;;;10.00;90.70;;;;;;5083186;28;19969;-69
2022/10/10 03:50:22;;;;;;;;;;;10.00;90.70;;;;;;5082953;28;20428;-69
2022/10/10 03:52:47;;;;;;;;;;;10.00;90.70;;;;;;5081068;28;19915;-69
2022/10/10 03:55:13;;;;;;;;;;;10.00;90.70;;;;;;5087022;28;19912;-69
2022/10/10 03:57:38;;;;;;;;;;;10.00;90.70;;;;;;5083705;28;19965;-68
2022/10/10 04:00:04;;;;;;;;;;;10.00;90.70;;;;;;5069106;28;20451;-69
2022/10/10 04:02:29;;;;;;;;;;;10.00;90.70;;;;;;5082478;28;19919;-68
2022/10/10 04:04:55;;;;;;;;;;;10.00;90.70;;;;;;5064905;28;19966;-68
2022/10/10 04:07:20;;;;;;;;;;;10.00;90.70;;;;;;5084716;28;19920;-68
2022/10/10 04:09:46;;;;;;;;;;;10.00;90.70;;;;;;5084378;28;19916;-69
2022/10/10 04:12:11;;;;;;;;;;;10.00;90.70;;;;;;5086403;28;19908;-69
2022/10/10 04:14:37;;;;;;;;;;;10.00;90.70;;;;;;5083617;28;19923;-68
2022/10/10 04:17:02;;;;;;;;;;;10.00;90.70;;;;;;5083336;28;19974;-68
2022/10/10 04:19:28;;;;;;;;;;;10.00;90.70;;;;;;5083987;28;20419;-68
2022/10/10 04:21:53;;;;;;;;;;;10.00;90.70;;;;;;5084797;28;19920;-68
2022/10/10 04:24:18;;;;;;;;;;;10.00;90.70;;;;;;5084141;28;19916;-69
2022/10/10 04:26:44;;;;;;;;;;;10.00;90.70;;;;;;5084406;28;20292;-69
2022/10/10 04:29:09;;;;;;;;;;;10.00;90.70;;;;;;5080427;28;19916;-69
2022/10/10 04:31:35;;;;;;;;;;;10.00;90.70;;;;;;5085660;28;20414;-69
2022/10/10 04:34:00;;;;;;;;;;;10.00;90.70;;;;;;5082734;28;19916;-69
2022/10/10 04:36:26;;;;;;;;;;;10.00;90.70;;;;;;5083961;28;19920;-68
2022/10/10 04:38:52;;;;;;;;;;;10.00;90.70;;;;;;5081318;28;20034;-69
2022/10/10 04:41:17;;;;;;;;;;;10.00;90.70;;;;;;5067572;28;20619;-67
2022/10/10 04:43:43;;;;;;;;;;;10.00;90.70;;;;;;5085523;28;19912;-68
2022/10/10 04:46:08;;;;;;;;;;;10.00;90.70;;;;;;5083489;28;20357;-68
2022/10/10 04:48:35;;;;;;;;;;;10.00;90.70;;;;;;5085154;28;19982;-68
2022/10/10 04:51:00;;;;;;;;;;;10.00;90.70;;;;;;5083229;28;20606;-69
2022/10/10 04:53:26;;;;;;;;;;;10.00;90.70;;;;;;5080974;28;19912;-68
2022/10/10 04:55:51;;;;;;;;;;;10.00;90.70;;;;;;5079575;28;19965;-69
2022/10/10 04:58:17;;;;;;;;;;;10.00;90.70;;;;;;5084555;28;19920;-69
2022/10/10 05:00:42;;;;;;;;;;;10.00;90.70;;;;;;5082948;28;19915;-68
2022/10/10 05:03:10;;;;;;;;;;;10.10;90.80;;;;;;5084579;28;19963;-69
2022/10/10 05:05:35;;;;;;;;;;;10.00;90.70;;;;;;5082250;28;20030;-69
2022/10/10 05:08:01;;;;;;;;;;;10.00;90.70;;;;;;5081618;28;19912;-68
2022/10/10 05:10:26;;;;;;;;;;;10.00;90.70;;;;;;5083339;28;19920;-68
2022/10/10 05:12:52;;;;;;;;;;;10.00;90.70;;;;;;5085300;28;19938;-69
2022/10/10 05:15:18;;;;;;;;;;;10.00;90.70;;;;;;5083370;28;19912;-68
2022/10/10 05:17:43;;;;;;;;;;;10.00;90.80;;;;;;5084204;28;20425;-69
2022/10/10 05:20:09;;;;;;;;;;;10.00;90.70;;;;;;5085727;28;20764;-69
2022/10/10 05:22:35;;;;;;;;;;;10.00;90.70;;;;;;5082203;28;19916;-68
2022/10/10 05:25:00;;;;;;;;;;;10.00;90.80;;;;;;5085661;28;19942;-68
2022/10/10 05:27:26;;;;;;;;;;;10.00;90.70;;;;;;5081558;28;19912;-69
2022/10/10 05:29:51;;;;;;;;;;;10.00;90.70;;;;;;5085766;28;19961;-68
2022/10/10 05:32:17;;;;;;;;;;;10.00;90.80;;;;;;5078872;28;20027;-69
2022/10/10 05:34:42;;;;;;;;;;;10.00;90.80;;;;;;5085493;28;19916;-69
2022/10/10 05:37:08;;;;;;;;;;;10.00;90.70;;;;;;5080357;28;19959;-69
2022/10/10 05:39:34;;;;;;;;;;;10.00;90.70;;;;;;5085470;28;19919;-69
2022/10/10 05:42:00;;;;;;;;;;;10.00;90.70;;;;;;5076937;28;19916;-69
2022/10/10 05:44:25;;;;;;;;;;;10.00;90.70;;;;;;5084374;28;19919;-69
2022/10/10 05:46:50;;;;;;;;;;;10.00;90.80;;;;;;5080207;28;19916;-69
2022/10/10 05:49:16;;;;;;;;;;;10.00;90.80;;;;;;5066236;28;20518;-69
2022/10/10 05:51:41;;;;;;;;;;;10.00;90.70;;;;;;5081936;28;20360;-69
2022/10/10 05:54:07;;;;;;;;;;;10.00;90.70;;;;;;5084709;28;19969;-69
2022/10/10 05:56:33;;;;;;;;;;;10.00;90.70;;;;;;5084555;28;19935;-69
2022/10/10 05:58:58;;;;;;;;;;;10.00;90.70;;;;;;5080494;28;19916;-69
2022/10/10 06:01:24;;;;;;;;;;;10.00;90.70;;;;;;5080856;28;19923;-69
2022/10/10 06:03:54;;;;;;;;;;;10.10;90.70;;;;;;5081045;28;19916;-69
2022/10/10 06:06:20;;;;;;;;;;;10.10;90.70;;;;;;5080236;28;19920;-69
2022/10/10 06:08:46;;;;;;;;;;;10.10;90.70;;;;;;5080764;28;20424;-69
2022/10/10 06:11:12;;;;;;;;;;;10.10;90.70;;;;;;5066098;28;19913;-69
2022/10/10 06:13:37;;;;;;;;;;;10.10;90.70;;;;;;5080229;28;19920;-69
2022/10/10 06:16:03;;;;;;;;;;;10.10;90.80;;;;;;5081566;28;20641;-69
2022/10/10 06:18:28;;;;;;;;;;;10.10;90.70;;;;;;5080443;28;19915;-69
2022/10/10 06:20:54;;;;;;;;;;;10.10;90.70;;;;;;5066389;28;19979;-70
2022/10/10 06:23:20;;;;;;;;;;;10.10;90.70;;;;;;5081599;28;19942;-69
2022/10/10 06:25:45;;;;;;;;;;;10.10;90.70;;;;;;5082327;28;19955;-69
2022/10/10 06:28:11;;;;;;;;;;;10.10;90.70;;;;;;5080620;28;19943;-69
2022/10/10 06:30:43;;;;;;;;;;;10.10;90.70;;;;;;5084623;28;19919;-69
2022/10/10 06:33:09;;;;;;;;;;;10.10;90.70;;;;;;5063901;28;20619;-69
2022/10/10 06:35:38;;;;;;;;;;;10.10;90.70;;;;;;5083959;28;19919;-69
2022/10/10 06:38:04;;;;;;;;;;;10.20;90.70;;;;;;5082184;28;19920;-69
2022/10/10 06:40:29;;;;;;;;;;;10.20;90.70;;;;;;5081342;28;20234;-69
2022/10/10 06:42:55;;;;;;;;;;;10.20;90.70;;;;;;5084002;28;19920;-69
2022/10/10 06:45:20;;;;;;;;;;;10.20;90.70;;;;;;5079208;28;19912;-69
2022/10/10 06:47:46;;;;;;;;;;;10.20;90.80;;;;;;5064905;28;20060;-69
2022/10/10 06:50:11;;;;;;;;;;;10.20;90.70;;;;;;5080886;28;19916;-69
2022/10/10 06:52:38;;;;;;;;;;;10.20;90.80;;;;;;5084078;28;20398;-69
2022/10/10 06:55:04;;;;;;;;;;;10.20;90.70;;;;;;5079826;28;19920;-69
2022/10/10 06:57:29;;;;;;;;;;;10.20;90.70;;;;;;5080067;28;20258;-69
2022/10/10 06:59:55;;;;;;;;;;;10.20;90.70;;;;;;5080857;28;19916;-69
2022/10/10 07:02:22;;;;;;;;;;;10.20;90.70;;;;;;5087032;28;19919;-69
2022/10/10 07:04:47;;;;;;;;;;;10.20;90.70;;;;;;5084265;28;20286;-69
2022/10/10 07:07:13;;;;;;;;;;;10.20;90.70;;;;;;5087256;28;19926;-69
2022/10/10 07:09:38;;;;;;;;;;;10.30;90.70;;;;;;5084528;28;19912;-69
2022/10/10 07:12:04;;;;;;;;;;;10.30;90.70;;;;;;5084285;28;20532;-69
2022/10/10 07:14:29;;;;;;;;;;;10.30;90.60;;;;;;5086526;28;19912;-69
2022/10/10 07:16:54;;;;;;;;;;;10.30;90.70;;;;;;5084969;28;20654;-69
2022/10/10 07:19:22;;;;;;;;;;;10.30;90.60;;;;;;5086598;28;19912;-69
2022/10/10 07:21:47;;;;;;;;;;;10.40;90.70;;;;;;5082177;28;19920;-69
2022/10/10 07:24:13;;;;;;;;;;;10.30;90.60;;;;;;5086861;28;19923;-69
2022/10/10 07:26:38;;;;;;;;;;;10.40;90.60;;;;;;5081892;28;20034;-69
2022/10/10 07:29:04;;;;;;;;;;;10.40;90.60;;;;;;5068961;28;19916;-70
2022/10/10 07:31:31;;;;;;;;;;;10.50;90.60;;;;;;5084436;28;20015;-69
2022/10/10 07:33:56;;;;;;;;;;;10.50;90.60;;;;;;5083145;28;20020;-69
2022/10/10 07:36:21;;;;;;;;;;;10.50;90.50;;;;;;5084466;28;19920;-70
2022/10/10 07:38:51;;;;;;;;;;;10.50;90.60;;;;;;5066864;28;20090;-69
2022/10/10 07:41:16;;;;;;;;;;;10.60;90.50;;;;;;5083149;28;19916;-69
2022/10/10 07:43:42;;;;;;;;;;;10.60;90.50;;;;;;5084212;28;19919;-70
2022/10/10 07:46:12;;;;;;;;;;;10.60;90.50;;;;;;5084217;28;19912;-69
2022/10/10 07:48:38;;;;;;;;;;;10.60;90.50;;;;;;5081501;28;19919;-69
2022/10/10 07:51:05;;;;;;;;;;;10.70;90.50;;;;;;5086411;28;20288;-69
2022/10/10 07:53:30;;;;;;;;;;;10.70;90.50;;;;;;5079977;28;20331;-70
2022/10/10 07:55:56;;;;;;;;;;;10.70;90.40;;;;;;5081391;28;19916;-70
2022/10/10 07:58:21;;;;;;;;;;;10.80;90.30;;;;;;5079219;28;19981;-70
2022/10/10 08:00:47;;;;;;;;;;;10.80;90.30;;;;;;5086353;28;20392;-69
2022/10/10 08:03:13;;;;;;;;;;;10.80;90.60;;;;;;5082832;28;19916;-72
2022/10/10 08:05:42;;;;;;;;;;;10.90;90.50;;;;;;5085884;28;19969;-70
2022/10/10 08:08:08;;;;;;;;;;;10.90;90.40;;;;;;5061929;28;19916;-69
2022/10/10 08:10:34;;;;;;;;;;;10.90;90.90;;;;;;5065912;28;20064;-69
2022/10/10 08:12:59;;;;;;;;;;;11.00;90.60;;;;;;5080324;28;19912;-70
2022/10/10 08:15:25;;;;;;;;;;;11.00;90.50;;;;;;5082933;28;19947;-69
2022/10/10 08:17:50;;;;;;;;;;;11.00;90.50;;;;;;5081687;28;20288;-69
2022/10/10 08:20:16;;;;;;;;;;;11.00;90.50;;;;;;5068150;28;19916;-69
2022/10/10 08:22:41;;;;;;;;;;;11.10;90.70;;;;;;5081145;28;19953;-69
2022/10/10 08:25:07;;;;;;;;;;;11.10;90.50;;;;;;5068657;28;20027;-69
2022/10/10 08:27:33;;;;;;;;;;;11.20;90.60;;;;;;5083688;28;19940;-69
2022/10/10 08:29:58;;;;;;;;;;;11.20;90.50;;;;;;5063474;28;19923;-69
2022/10/10 08:32:24;;;;;;;;;;;11.20;90.60;;;;;;5086464;28;19927;-69
2022/10/10 08:34:49;;;;;;;;;;;11.30;90.50;;;;;;5082803;28;19969;-69
2022/10/10 08:37:15;;;;;;;;;;;11.30;90.50;;;;;;5083055;28;19920;-69
2022/10/10 08:39:40;;;;;;;;;;;11.30;90.40;;;;;;5083162;28;19961;-70
2022/10/10 08:42:10;;;;;;;;;;;11.40;90.20;;;;;;5086055;28;20001;-69
2022/10/10 08:44:35;;;;;;;;;;;11.40;90.30;;;;;;5083169;28;20414;-70
2022/10/10 08:47:14;;;;;;;;;;;11.50;90.30;;;;;;5082162;28;19916;-69
2022/10/10 08:49:42;;;;;;;;;;;11.50;90.30;;;;;;5080738;28;19931;-69
2022/10/10 08:52:13;;;;;;;;;;;11.60;90.40;;;;;;5085681;28;20651;-69
2022/10/10 08:54:40;;;;;;;;;;;11.60;90.10;;;;;;5082422;28;20675;-69
2022/10/10 08:57:10;;;;;;;;;;;11.70;90.70;;;;;;5085467;28;19915;-69
2022/10/10 08:59:38;;;;;;;;;;;11.70;90.40;;;;;;5082655;28;19912;-69
2022/10/10 09:02:24;;;;;;;;;;;11.70;90.10;;;;;;5085874;28;20432;-70
2022/10/10 09:04:50;;;;;;;;;;;11.80;90.30;;;;;;5077676;28;19924;-69
2022/10/10 09:07:17;;;;;;;;;;;11.80;90.20;;;;;;5083624;28;19927;-69
2022/10/10 09:10:05;;;;;;;;;;;11.90;90.20;;;;;;5082197;28;19951;-69
2022/10/10 09:12:34;;;;;;;;;;;11.90;90.00;;;;;;5074404;28;20019;-69
2022/10/10 09:14:59;;;;;;;;;;;11.90;90.20;;;;;;5081658;28;19912;-69
2022/10/10 09:17:44;;;;;;;;;;;12.00;90.20;;;;;;5085365;28;20556;-70
2022/10/10 09:20:12;;;;;;;;;;;12.00;90.10;;;;;;5081167;28;19916;-69
2022/10/10 09:23:04;;;;;;;;;;;12.00;90.40;;;;;;5085423;28;19912;-70
2022/10/10 09:25:33;;;;;;;;;;;12.00;90.10;;;;;;5078893;28;19923;-70
2022/10/10 09:28:18;;;;;;;;;;;12.10;90.20;;;;;;5080533;28;20018;-70
2022/10/10 09:30:47;;;;;;;;;;;12.20;90.20;;;;;;5082475;28;19916;-69
2022/10/10 09:33:19;;;;;;;;;;;12.20;90.40;;;;;;5083974;28;19966;-70
2022/10/10 09:35:45;;;;;;;;;;;12.20;90.30;;;;;;5082615;28;19920;-69
2022/10/10 09:38:49;;;;;;;;;;;12.30;90.30;;;;;;5084326;28;20007;-70
2022/10/10 09:41:14;;;;;;;;;;;12.30;90.40;;;;;;4999784;28;19918;-70
2022/10/10 09:43:40;;;;;;;;;;;12.40;90.20;;;;;;5001726;28;19919;-70
2022/10/10 09:46:06;;;;;;;;;;;12.40;90.00;;;;;;5037513;28;19916;-70
2022/10/10 09:48:41;;;;;;;;;;;12.50;90.10;;;;;;5084266;28;19912;-71
2022/10/10 09:51:11;;;;;;;;;;;12.50;90.00;;;;;;5081875;28;20007;-70
2022/10/10 09:53:37;;;;;;;;;;;12.60;90.00;;;;;;5081560;28;20550;-70
2022/10/10 09:56:04;;;;;;;;;;;12.60;90.10;;;;;;5082492;28;19918;-70
2022/10/10 09:58:39;;;;;;;;;;;12.70;89.80;;;;;;5078568;28;20005;-70
2022/10/10 10:01:15;;;;;;;;;;;12.80;90.10;;;;;;5085009;28;19912;-70
2022/10/10 10:03:40;;;;;;;;;;;12.90;90.00;;;;;;5065051;28;20755;-70
2022/10/10 10:06:10;;;;;;;;;;;12.90;89.70;;;;;;5084519;28;19926;-70
2022/10/10 10:08:35;;;;;;;;;;;13.00;89.70;;;;;;5061928;28;19920;-69
2022/10/10 10:11:02;;;;;;;;;;;13.00;89.50;;;;;;5084985;28;19957;-70
2022/10/10 10:13:30;;;;;;;;;;;13.10;88.90;;;;;;5063739;28;19920;-70
2022/10/10 10:15:58;;;;;;;;;;;13.20;89.60;;;;;;5083951;28;19912;-70
2022/10/10 10:18:26;;;;;;;;;;;13.30;89.70;;;;;;5080407;28;19916;-70
2022/10/10 10:21:01;;;;;;;;;;;13.40;89.00;;;;;;5084517;28;19920;-70
2022/10/10 10:23:47;;;;;;;;;;;13.40;89.00;;;;;;5080910;28;19996;-70
2022/10/10 10:26:15;;;;;;;;;;;13.40;89.00;;;;;;5083013;28;19919;-70
2022/10/10 10:28:41;;;;;;;;;;;13.40;89.10;;;;;;5081307;28;19924;-70
2022/10/10 10:31:15;;;;;;;;;;;13.40;90.00;;;;;;5084558;28;20582;-70
2022/10/10 10:33:45;;;;;;;;;;;13.50;89.40;;;;;;5080115;28;20010;-70
2022/10/10 10:36:13;;;;;;;;;;;13.50;89.30;;;;;;5084825;28;19916;-70
2022/10/10 10:38:48;;;;;;;;;;;13.50;89.30;;;;;;5082669;28;19976;-70
2022/10/10 10:41:40;;;;;;;;;;;13.50;89.00;;;;;;5088047;28;20032;-69
2022/10/10 10:44:26;;;;;;;;;;;13.50;89.40;;;;;;5042827;28;20695;-69
2022/10/10 10:46:51;;;;;;;;;;;13.60;89.80;;;;;;5086579;28;19916;-70
2022/10/10 10:49:21;;;;;;;;;;;13.60;89.90;;;;;;5085386;28;19917;-69
2022/10/10 10:51:50;;;;;;;;;;;13.70;89.70;;;;;;5088358;28;19916;-69
2022/10/10 10:54:18;;;;;;;;;;;13.80;89.50;;;;;;5084579;28;19916;-69
2022/10/10 10:56:52;;;;;;;;;;;13.80;89.40;;;;;;5088303;28;19919;-69
2022/10/10 10:59:29;;;;;;;;;;;13.90;89.40;;;;;;5082909;28;19923;-69
2022/10/10 11:01:56;;;;;;;;;;;14.00;89.60;;;;;;5087367;28;19927;-69
2022/10/10 11:04:31;;;;;;;;;;;14.00;89.50;;;;;;5083310;28;19915;-70
2022/10/10 11:06:59;;;;;;;;;;;14.10;89.50;;;;;;5086713;28;19968;-69
2022/10/10 11:09:36;;;;;;;;;;;14.10;89.20;;;;;;5084292;28;19923;-70
2022/10/10 11:12:20;;;;;;;;;;;14.20;89.30;;;;;;5082792;28;20002;-70
2022/10/10 11:14:46;;;;;;;;;;;14.30;89.00;;;;;;5082536;28;20666;-70
2022/10/10 11:17:11;;;;;;;;;;;14.30;89.40;;;;;;5087220;28;20002;-70
2022/10/10 11:19:55;;;;;;;;;;;14.30;89.30;;;;;;5083781;28;20019;-69
2022/10/10 11:22:41;;;;;;;;;;;14.40;89.20;;;;;;5085564;28;20437;-69
2022/10/10 11:25:12;;;;;;;;;;;14.50;89.40;;;;;;5081270;28;19908;-69
2022/10/10 11:27:41;;;;;;;;;;;14.50;89.30;;;;;;5086270;28;19985;-69
2022/10/10 11:30:07;;;;;;;;;;;14.50;89.50;;;;;;5066319;28;19922;-69
2022/10/10 11:32:38;;;;;;;;;;;14.60;89.30;;;;;;5082117;28;19916;-70
2022/10/10 11:35:07;;;;;;;;;;;14.70;89.70;;;;;;5082195;28;19923;-69
2022/10/10 11:37:35;;;;;;;;;;;14.70;89.20;;;;;;5083293;28;19916;-69
2022/10/10 11:40:04;;;;;;;;;;;14.70;88.70;;;;;;5083009;28;19927;-69
2022/10/10 11:42:51;;;;;;;;;;;14.80;88.90;;;;;;5081511;28;19916;-69
2022/10/10 11:45:19;;;;;;;;;;;14.90;88.90;;;;;;5084580;28;19912;-69
2022/10/10 11:47:56;;;;;;;;;;;14.90;88.80;;;;;;5086738;28;19912;-69
2022/10/10 11:50:25;;;;;;;;;;;15.00;89.10;;;;;;5065552;28;20014;-69
2022/10/10 11:53:05;;;;;;;;;;;15.00;88.50;;;;;;5086854;28;20002;-69
2022/10/10 11:55:49;;;;;;;;;;;15.10;88.90;;;;;;5083138;28;20041;-69
2022/10/10 11:58:30;;;;;;;;;;;15.10;88.40;;;;;;5085849;28;20813;-69
2022/10/10 12:00:57;;;;;;;;;;;15.20;88.50;;;;;;5082973;28;20356;-69
2022/10/10 12:03:24;;;;;;;;;;;15.20;88.50;;;;;;5085750;28;19955;-70
2022/10/10 12:06:13;;;;;;;;;;;15.20;88.70;;;;;;5083121;28;20606;-69
2022/10/10 12:08:41;;;;;;;;;;;15.30;88.50;;;;;;5051238;28;19927;-69
2022/10/10 12:11:23;;;;;;;;;;;15.30;88.30;;;;;;5084908;28;19916;-68
2022/10/10 12:13:53;;;;;;;;;;;15.40;88.20;;;;;;5085650;28;19923;-69
2022/10/10 12:16:19;;;;;;;;;;;15.40;88.10;;;;;;5086368;28;19916;-69
2022/10/10 12:18:49;;;;;;;;;;;15.50;88.30;;;;;;5084627;28;19923;-69
2022/10/10 12:21:16;;;;;;;;;;;15.50;88.00;;;;;;5086512;28;20029;-69
2022/10/10 12:23:46;;;;;;;;;;;15.60;88.10;;;;;;5065314;28;19917;-69
2022/10/10 12:26:12;;;;;;;;;;;15.60;88.10;;;;;;5067915;28;19912;-69
2022/10/10 12:28:57;;;;;;;;;;;15.60;88.20;;;;;;5079200;28;19924;-69
2022/10/10 12:31:32;;;;;;;;;;;15.60;88.00;;;;;;5086642;28;19946;-69
2022/10/10 12:34:13;;;;;;;;;;;15.70;87.90;;;;;;5082194;28;19916;-69
2022/10/10 12:36:38;;;;;;;;;;;15.70;88.10;;;;;;5086275;28;20714;-69
2022/10/10 12:39:07;;;;;;;;;;;15.70;88.60;;;;;;5082800;28;19916;-69
2022/10/10 12:41:41;;;;;;;;;;;15.70;88.40;;;;;;5085931;28;20663;-69
2022/10/10 12:44:24;;;;;;;;;;;15.80;88.30;;;;;;5082673;28;19920;-69
2022/10/10 12:47:08;;;;;;;;;;;15.80;88.30;;;;;;5084910;28;19927;-69
2022/10/10 12:49:34;;;;;;;;;;;15.80;88.20;;;;;;5083225;28;19916;-69
2022/10/10 12:52:02;;;;;;;;;;;15.80;88.00;;;;;;5085989;28;19961;-69
2022/10/10 12:54:29;;;;;;;;;;;15.90;88.10;;;;;;5078632;28;20258;-69
2022/10/10 12:57:02;;;;;;;;;;;15.90;88.10;;;;;;5084369;28;20303;-69
2022/10/10 12:59:28;;;;;;;;;;;15.90;88.20;;;;;;5078471;28;19923;-69
2022/10/10 13:02:01;;;;;;;;;;;15.90;88.30;;;;;;5082914;28;20325;-69
2022/10/10 13:04:27;;;;;;;;;;;15.90;88.50;;;;;;5083124;28;19916;-69
2022/10/10 13:06:55;;;;;;;;;;;16.00;88.80;;;;;;5085079;28;19920;-69
2022/10/10 13:09:22;;;;;;;;;;;16.00;88.70;;;;;;5081957;28;19912;-69
2022/10/10 13:11:55;;;;;;;;;;;16.00;88.60;;;;;;5085243;28;19922;-69
2022/10/10 13:14:21;;;;;;;;;;;16.00;88.80;;;;;;5080254;28;19912;-69
2022/10/10 13:16:47;;;;;;;;;;;16.10;88.50;;;;;;5083662;28;19923;-69
2022/10/10 13:19:22;;;;;;;;;;;16.10;88.80;;;;;;5082107;28;19916;-69
2022/10/10 13:21:49;;;;;;;;;;;16.20;88.00;;;;;;5085029;28;19978;-69
2022/10/10 13:24:17;;;;;;;;;;;16.20;88.80;;;;;;5082767;28;19921;-69
2022/10/10 13:26:44;;;;;;;;;;;16.20;89.40;;;;;;5085610;28;19912;-69
2022/10/10 13:29:25;;;;;;;;;;;16.30;89.50;;;;;;5080998;28;19913;-69
2022/10/10 13:31:52;;;;;;;;;;;16.30;89.60;;;;;;5065695;28;20601;-69
2022/10/10 13:34:20;;;;;;;;;;;16.30;89.60;;;;;;5084406;28;19986;-69
2022/10/10 13:36:46;;;;;;;;;;;16.40;89.20;;;;;;5083602;28;19920;-69
2022/10/10 13:39:13;;;;;;;;;;;16.40;89.00;;;;;;5082889;28;19908;-69
2022/10/10 13:41:39;;;;;;;;;;;16.40;89.20;;;;;;5082577;28;20035;-69
2022/10/10 13:44:11;;;;;;;;;;;16.40;89.20;;;;;;5084667;28;20373;-69
2022/10/10 13:46:37;;;;;;;;;;;16.40;89.00;;;;;;5081717;28;19927;-69
2022/10/10 13:49:12;;;;;;;;;;;16.40;89.10;;;;;;5084056;28;19921;-69
2022/10/10 13:51:41;;;;;;;;;;;16.50;89.70;;;;;;5082307;28;19920;-69
2022/10/10 13:54:27;;;;;;;;;;;16.50;89.80;;;;;;5083855;28;19913;-69
2022/10/10 13:56:52;;;;;;;;;;;16.50;90.00;;;;;;5080853;28;19920;-69
2022/10/10 13:59:19;;;;;;;;;;;16.50;90.10;;;;;;5083868;28;20446;-69
2022/10/10 14:01:48;;;;;;;;;;;16.60;90.20;;;;;;5082620;28;19943;-69
2022/10/10 14:04:25;;;;;;;;;;;16.60;90.10;;;;;;5084081;28;19920;-70
2022/10/10 14:06:54;;;;;;;;;;;16.60;90.30;;;;;;5080883;28;19955;-69
2022/10/10 14:09:30;;;;;;;;;;;16.60;90.20;;;;;;5081386;28;19919;-70
2022/10/10 14:11:58;;;;;;;;;;;16.60;90.20;;;;;;5084909;28;19916;-69
2022/10/10 14:14:44;;;;;;;;;;;16.60;90.20;;;;;;5070243;28;20689;-70
2022/10/10 14:17:10;;;;;;;;;;;16.60;90.00;;;;;;5082310;28;19920;-69
2022/10/10 14:19:36;;;;;;;;;;;16.70;90.10;;;;;;5088055;28;20024;-69
2022/10/10 14:22:02;;;;;;;;;;;16.70;90.10;;;;;;5085009;28;20333;-69
2022/10/10 14:24:27;;;;;;;;;;;16.70;89.80;;;;;;5086989;28;19915;-69
2022/10/10 14:26:53;;;;;;;;;;;16.70;89.80;;;;;;5089523;28;19922;-70